createdAt,value
2018-05-21T00:00:15.952Z,4.90
2018-05-21T00:02:43.945Z,5.63
2018-05-21T00:05:11.916Z,6.43
2018-05-21T00:07:39.881Z,6.60
2018-05-21T00:10:07.848Z,6.33
2018-05-21T00:12:35.810Z,5.10
2018-05-21T00:15:03.883Z,5.47
2018-05-21T00:17:31.897Z,5.30
2018-05-21T00:19:59.933Z,6.73
2018-05-21T00:22:28.008Z,6.20
2018-05-21T00:24:55.947Z,5.07
2018-05-21T00:27:24.008Z,6.60
2018-05-21T00:29:51.996Z,5.27
2018-05-21T00:32:20.007Z,5.00
2018-05-21T00:34:48.031Z,5.10
2018-05-21T00:37:15.972Z,5.33
2018-05-21T00:39:43.944Z,5.07
2018-05-21T00:42:11.908Z,6.10
2018-05-21T00:44:39.952Z,5.57
2018-05-21T00:47:08.113Z,6.50
2018-05-21T00:49:36.097Z,7.50
2018-05-21T00:52:04.081Z,6.30
2018-05-21T00:54:32.075Z,6.87
2018-05-21T00:57:00.193Z,6.63
2018-05-21T00:59:28.235Z,6.97
2018-05-21T01:01:56.268Z,6.50
2018-05-21T01:04:24.273Z,7.30
2018-05-21T01:06:52.297Z,7.40
2018-05-21T01:09:20.266Z,11.70
2018-05-21T01:11:48.294Z,11.53
2018-05-21T01:14:16.333Z,7.70
2018-05-21T01:16:44.393Z,7.40
2018-05-21T01:19:12.415Z,7.27
2018-05-21T01:21:40.383Z,5.83
2018-05-21T01:24:08.339Z,5.80
2018-05-21T01:26:36.347Z,6.33
2018-05-21T01:29:04.332Z,6.00
2018-05-21T01:31:32.373Z,6.70
2018-05-21T01:34:00.431Z,5.80
2018-05-21T01:36:28.415Z,5.63
2018-05-21T01:38:56.340Z,5.43
2018-05-21T01:41:24.327Z,6.30
2018-05-21T01:43:52.374Z,5.90
2018-05-21T01:46:20.364Z,6.17
2018-05-21T01:48:48.466Z,5.97
2018-05-21T01:51:16.547Z,6.60
2018-05-21T01:53:44.567Z,6.27
2018-05-21T01:56:12.556Z,6.43
2018-05-21T01:58:40.571Z,6.77
2018-05-21T02:01:08.560Z,7.37
2018-05-21T02:03:36.550Z,5.90
2018-05-21T02:06:04.656Z,6.53
2018-05-21T02:08:32.707Z,6.20
2018-05-21T02:11:00.669Z,7.33
2018-05-21T02:13:28.692Z,6.63
2018-05-21T02:15:56.732Z,7.90
2018-05-21T02:18:24.757Z,6.57
2018-05-21T02:24:08.719Z,7.10
2018-05-21T02:26:37.448Z,8.33
2018-05-21T02:29:06.242Z,7.70
2018-05-21T02:31:34.613Z,6.20
2018-05-21T02:34:03.666Z,7.87
2018-05-21T02:36:31.994Z,6.37
2018-05-21T02:39:00.662Z,7.97
2018-05-21T02:41:28.961Z,6.70
2018-05-21T02:43:57.626Z,6.60
2018-05-21T02:46:26.414Z,6.87
2018-05-21T02:48:54.987Z,9.30
2018-05-21T02:51:23.383Z,8.53
2018-05-21T02:53:51.757Z,7.13
2018-05-21T02:56:20.417Z,5.83
2018-05-21T02:58:49.104Z,5.97
2018-05-21T03:01:18.695Z,6.93
2018-05-21T03:03:47.213Z,7.10
2018-05-21T03:06:15.696Z,5.93
2018-05-21T03:08:44.187Z,6.47
2018-05-21T03:11:12.587Z,6.83
2018-05-21T03:13:41.044Z,6.07
2018-05-21T03:16:09.616Z,6.87
2018-05-21T03:18:37.623Z,6.83
2018-05-21T03:21:05.646Z,6.10
2018-05-21T03:23:33.830Z,7.17
2018-05-21T03:26:02.318Z,6.27
2018-05-21T03:28:30.290Z,7.23
2018-05-21T03:30:58.303Z,6.53
2018-05-21T03:33:26.290Z,7.20
2018-05-21T03:35:54.256Z,7.67
2018-05-21T03:38:22.256Z,7.93
2018-05-21T03:40:50.262Z,7.77
2018-05-21T03:43:18.237Z,7.50
2018-05-21T03:45:46.253Z,7.13
2018-05-21T03:48:14.243Z,6.67
2018-05-21T03:50:42.273Z,8.37
2018-05-21T03:53:10.260Z,7.17
2018-05-21T03:55:38.237Z,7.20
2018-05-21T03:58:06.332Z,7.43
2018-05-21T04:00:46.557Z,7.67
2018-05-21T04:03:27.604Z,7.27
2018-05-21T04:05:55.668Z,9.80
2018-05-21T04:08:24.099Z,8.40
2018-05-21T04:10:52.596Z,8.27
2018-05-21T04:13:21.126Z,8.00
2018-05-21T04:15:49.114Z,8.30
2018-05-21T04:18:17.143Z,12.67
2018-05-21T04:20:45.143Z,13.80
2018-05-21T04:23:13.174Z,13.00
2018-05-21T04:25:41.249Z,13.70
2018-05-21T04:28:10.148Z,11.97
2018-05-21T04:30:38.163Z,10.03
2018-05-21T04:33:06.238Z,9.53
2018-05-21T04:35:34.215Z,9.43
2018-05-21T04:38:02.224Z,9.40
2018-05-21T04:40:30.235Z,7.97
2018-05-21T04:42:58.260Z,8.63
2018-05-21T04:45:26.282Z,8.60
2018-05-21T04:47:54.384Z,8.70
2018-05-21T04:50:22.382Z,11.10
2018-05-21T04:52:50.557Z,14.70
2018-05-21T04:55:18.523Z,12.40
2018-05-21T04:57:46.521Z,12.10
2018-05-21T05:00:14.505Z,11.67
2018-05-21T05:02:42.440Z,8.43
2018-05-21T05:05:10.388Z,9.30
2018-05-21T05:07:38.421Z,8.60
2018-05-21T05:10:06.509Z,8.77
2018-05-21T05:12:34.558Z,7.70
2018-05-21T05:15:02.605Z,7.40
2018-05-21T05:17:30.559Z,7.80
2018-05-21T05:19:58.552Z,7.20
2018-05-21T05:22:26.588Z,7.57
2018-05-21T05:24:54.590Z,8.17
2018-05-21T05:27:22.630Z,7.73
2018-05-21T05:29:51.152Z,7.60
2018-05-21T05:32:19.206Z,34.37
2018-05-21T05:34:47.297Z,11.30
2018-05-21T05:37:15.423Z,8.33
2018-05-21T05:39:43.424Z,8.07
2018-05-21T05:42:11.529Z,8.20
2018-05-21T05:44:39.539Z,7.57
2018-05-21T05:47:07.518Z,8.40
2018-05-21T05:49:35.638Z,8.90
2018-05-21T05:52:03.792Z,10.03
2018-05-21T05:54:31.848Z,8.10
2018-05-21T05:56:59.867Z,8.40
2018-05-21T05:59:27.868Z,8.07
2018-05-21T06:01:55.906Z,8.90
2018-05-21T06:04:23.891Z,8.80
2018-05-21T06:06:51.888Z,8.20
2018-05-21T06:09:19.897Z,9.10
2018-05-21T06:11:47.973Z,8.50
2018-05-21T06:14:16.001Z,8.17
2018-05-21T06:16:44.016Z,9.20
2018-05-21T06:19:12.757Z,8.80
2018-05-21T06:21:40.798Z,9.90
2018-05-21T06:24:08.809Z,9.20
2018-05-21T06:26:36.926Z,9.30
2018-05-21T06:29:05.834Z,7.77
2018-05-21T06:31:33.938Z,9.30
2018-05-21T06:34:02.030Z,10.07
2018-05-21T06:36:29.943Z,10.57
2018-05-21T06:38:57.979Z,9.20
2018-05-21T06:41:25.977Z,10.33
2018-05-21T06:43:54.157Z,8.73
2018-05-21T06:46:22.169Z,9.27
2018-05-21T06:48:50.196Z,8.20
2018-05-21T06:51:18.335Z,8.90
2018-05-21T06:53:46.835Z,9.30
2018-05-21T06:56:15.343Z,9.70
2018-05-21T06:58:43.826Z,7.97
2018-05-21T07:01:12.606Z,10.13
2018-05-21T07:03:41.210Z,8.10
2018-05-21T07:06:09.893Z,9.17
2018-05-21T07:08:38.629Z,9.43
2018-05-21T07:11:06.682Z,8.53
2018-05-21T07:13:34.809Z,10.00
2018-05-21T07:16:03.311Z,8.90
2018-05-21T07:18:32.044Z,7.83
2018-05-21T07:21:00.111Z,8.63
2018-05-21T07:23:28.108Z,9.27
2018-05-21T07:25:56.150Z,9.30
2018-05-21T07:28:24.938Z,10.07
2018-05-21T07:30:53.578Z,9.13
2018-05-21T07:33:22.471Z,9.47
2018-05-21T07:35:51.235Z,9.50
2018-05-21T07:38:19.783Z,9.43
2018-05-21T07:40:48.443Z,9.70
2018-05-21T07:43:16.530Z,9.73
2018-05-21T07:45:44.966Z,9.73
2018-05-21T07:48:13.857Z,10.43
2018-05-21T07:50:42.336Z,8.70
2018-05-21T07:53:11.024Z,8.87
2018-05-21T07:55:39.592Z,8.73
2018-05-21T07:58:08.269Z,8.57
2018-05-21T08:00:36.874Z,8.93
2018-05-21T08:03:05.439Z,7.73
2018-05-21T08:05:34.122Z,7.80
2018-05-21T08:08:02.514Z,9.00
2018-05-21T08:10:31.083Z,7.83
2018-05-21T08:12:59.876Z,8.27
2018-05-21T08:15:28.234Z,7.30
2018-05-21T08:17:56.755Z,8.00
2018-05-21T08:20:25.510Z,7.60
2018-05-21T08:22:54.204Z,8.50
2018-05-21T08:25:22.717Z,7.03
2018-05-21T08:27:51.268Z,7.57
2018-05-21T08:30:19.963Z,7.63
2018-05-21T08:32:48.384Z,6.83
2018-05-21T08:35:17.342Z,6.80
2018-05-21T08:37:45.799Z,6.73
2018-05-21T08:40:14.384Z,5.90
2018-05-21T08:42:43.079Z,6.23
2018-05-21T08:45:11.671Z,6.87
2018-05-21T08:47:40.329Z,7.17
2018-05-21T08:50:08.917Z,7.33
2018-05-21T08:52:37.363Z,7.03
2018-05-21T08:55:06.074Z,7.40
2018-05-21T08:57:34.667Z,6.83
2018-05-21T09:00:02.961Z,6.90
2018-05-21T09:02:31.448Z,8.17
2018-05-21T09:05:00.308Z,7.07
2018-05-21T09:07:29.511Z,7.60
2018-05-21T09:09:58.159Z,7.37
2018-05-21T09:12:27.230Z,8.03
2018-05-21T09:14:56.309Z,7.00
2018-05-21T09:17:24.887Z,8.00
2018-05-21T09:19:53.572Z,7.70
2018-05-21T09:22:22.095Z,7.50
2018-05-21T09:24:50.835Z,8.20
2018-05-21T09:27:19.319Z,7.80
2018-05-21T09:29:47.978Z,8.60
2018-05-21T09:32:16.539Z,5.53
2018-05-21T09:34:44.702Z,7.20
2018-05-21T09:37:13.411Z,9.17
2018-05-21T09:39:42.280Z,7.00
2018-05-21T09:42:10.596Z,6.27
2018-05-21T09:44:38.604Z,6.00
2018-05-21T09:47:07.145Z,7.13
2018-05-21T09:49:35.619Z,7.33
2018-05-21T09:52:04.120Z,5.70
2018-05-21T09:54:32.160Z,6.17
2018-05-21T09:57:00.752Z,6.43
2018-05-21T09:59:28.820Z,7.13
2018-05-21T10:01:57.424Z,6.40
2018-05-21T10:04:25.887Z,7.60
2018-05-21T10:06:54.466Z,6.93
2018-05-21T10:09:23.067Z,7.33
2018-05-21T10:11:51.750Z,7.10
2018-05-21T10:14:20.214Z,8.33
2018-05-21T10:16:48.739Z,7.50
2018-05-21T10:19:17.305Z,6.63
2018-05-21T10:21:46.168Z,7.50
2018-05-21T10:24:14.851Z,9.00
2018-05-21T10:26:43.588Z,9.97
2018-05-21T10:29:12.091Z,8.23
2018-05-21T10:31:40.517Z,10.33
2018-05-21T10:34:09.182Z,13.87
2018-05-21T10:36:37.691Z,19.83
2018-05-21T10:39:07.191Z,14.47
2018-05-21T10:41:35.831Z,14.70
2018-05-21T10:44:04.555Z,12.40
2018-05-21T10:46:33.148Z,14.87
2018-05-21T10:49:01.606Z,17.10
2018-05-21T10:51:30.205Z,17.70
2018-05-21T10:53:58.773Z,14.20
2018-05-21T10:56:27.271Z,12.73
2018-05-21T10:58:55.946Z,9.70
2018-05-21T11:01:24.744Z,10.50
2018-05-21T11:03:52.964Z,11.40
2018-05-21T11:06:21.503Z,11.63
2018-05-21T11:08:49.806Z,11.83
2018-05-21T11:11:18.263Z,11.70
2018-05-21T11:13:46.835Z,9.63
2018-05-21T11:16:15.608Z,9.20
2018-05-21T11:18:44.438Z,11.40
2018-05-21T11:21:12.916Z,9.93
2018-05-21T11:23:41.480Z,10.50
2018-05-21T11:26:10.034Z,11.27
2018-05-21T11:28:38.723Z,9.70
2018-05-21T11:31:07.162Z,9.10
2018-05-21T11:33:35.689Z,8.63
2018-05-21T11:36:04.342Z,9.43
2018-05-21T11:38:32.780Z,9.50
2018-05-21T11:41:01.855Z,10.90
2018-05-21T11:43:30.639Z,8.23
2018-05-21T11:45:59.516Z,8.67
2018-05-21T11:48:28.207Z,7.50
2018-05-21T11:50:56.833Z,8.50
2018-05-21T11:53:25.575Z,8.40
2018-05-21T11:55:54.158Z,7.17
2018-05-21T11:58:22.705Z,7.87
2018-05-21T12:00:51.243Z,6.53
2018-05-21T12:03:20.173Z,6.20
2018-05-21T12:05:48.878Z,6.70
2018-05-21T12:08:17.396Z,8.33
2018-05-21T12:10:45.857Z,6.30
2018-05-21T12:13:14.288Z,6.83
2018-05-21T12:15:42.740Z,6.33
2018-05-21T12:18:11.499Z,6.53
2018-05-21T12:20:40.605Z,5.20
2018-05-21T12:23:09.115Z,6.53
2018-05-21T12:25:37.601Z,7.00
2018-05-21T12:28:06.442Z,6.20
2018-05-21T12:30:35.238Z,6.80
2018-05-21T12:33:04.118Z,6.10
2018-05-21T12:35:32.545Z,6.70
2018-05-21T12:38:01.012Z,6.37
2018-05-21T12:40:29.460Z,5.97
2018-05-21T12:42:58.014Z,6.07
2018-05-21T12:45:26.647Z,7.23
2018-05-21T12:47:55.436Z,5.87
2018-05-21T12:50:24.303Z,6.03
2018-05-21T12:52:53.083Z,7.47
2018-05-21T12:55:21.671Z,6.20
2018-05-21T12:57:50.181Z,6.03
2018-05-21T13:00:18.728Z,5.80
2018-05-21T13:02:47.335Z,6.40
2018-05-21T13:05:16.054Z,6.80
2018-05-21T13:07:44.598Z,7.03
2018-05-21T13:10:13.272Z,7.27
2018-05-21T13:12:41.701Z,7.60
2018-05-21T13:58:50.729Z,8.23
2018-05-21T14:01:19.138Z,11.70
2018-05-21T14:03:48.332Z,11.73
2018-05-21T14:06:16.830Z,11.37
2018-05-21T14:08:45.225Z,9.60
2018-05-21T14:11:13.771Z,10.47
2018-05-21T14:13:42.584Z,9.80
2018-05-21T14:16:11.036Z,9.80
2018-05-21T14:18:39.522Z,13.50
2018-05-21T14:21:08.187Z,14.27
2018-05-21T14:23:36.726Z,12.73
2018-05-21T14:26:05.180Z,15.30
2018-05-21T14:28:33.839Z,11.43
2018-05-21T14:31:02.366Z,8.27
2018-05-21T14:33:30.834Z,7.50
2018-05-21T14:35:59.490Z,10.47
2018-05-21T14:38:28.180Z,6.57
2018-05-21T14:40:56.375Z,9.53
2018-05-21T14:43:25.067Z,5.40
2018-05-21T14:45:53.415Z,5.90
2018-05-21T14:48:21.927Z,5.00
2018-05-21T14:50:50.585Z,6.03
2018-05-21T14:53:19.477Z,7.57
2018-05-21T14:55:48.018Z,6.83
2018-05-21T14:58:16.436Z,8.00
2018-05-21T15:00:45.512Z,6.23
2018-05-21T15:03:13.771Z,9.13
2018-05-21T15:05:42.393Z,7.93
2018-05-21T15:08:10.978Z,7.60
2018-05-21T15:10:39.458Z,6.73
2018-05-21T15:13:08.038Z,6.30
2018-05-21T15:15:36.715Z,7.47
2018-05-21T15:18:05.115Z,6.47
2018-05-21T15:20:33.885Z,5.33
2018-05-21T15:23:02.464Z,6.50
2018-05-21T15:25:31.115Z,5.70
2018-05-21T15:27:59.860Z,4.00
2018-05-21T15:30:28.449Z,4.97
2018-05-21T15:32:57.207Z,5.30
2018-05-21T15:35:26.094Z,5.63
2018-05-21T15:37:54.539Z,5.20
2018-05-21T15:40:22.848Z,7.17
2018-05-21T15:42:51.352Z,6.50
2018-05-21T15:45:19.843Z,7.00
2018-05-21T15:47:48.712Z,7.80
2018-05-21T15:50:17.317Z,5.90
2018-05-21T15:52:45.659Z,5.50
2018-05-21T15:55:14.245Z,6.37
2018-05-21T15:57:43.068Z,6.27
2018-05-21T16:00:11.321Z,4.87
2018-05-21T16:02:40.210Z,5.27
2018-05-21T16:05:08.570Z,5.10
2018-05-21T16:07:37.170Z,5.93
2018-05-21T16:10:05.844Z,6.30
2018-05-21T16:12:34.425Z,6.27
2018-05-21T16:15:02.923Z,6.10
2018-05-21T16:17:31.488Z,5.80
2018-05-21T16:20:00.066Z,7.47
2018-05-21T16:22:28.724Z,7.03
2018-05-21T16:24:57.463Z,7.27
2018-05-21T16:27:26.026Z,15.67
2018-05-21T16:29:54.405Z,9.17
2018-05-21T16:32:23.032Z,6.27
2018-05-21T16:34:51.567Z,7.77
2018-05-21T16:37:20.148Z,6.90
2018-05-21T16:39:48.666Z,6.90
2018-05-21T16:42:17.106Z,6.73
2018-05-21T16:44:46.089Z,8.80
2018-05-21T16:47:14.689Z,4.70
2018-05-21T16:49:43.438Z,4.83
2018-05-21T16:52:12.156Z,4.67
2018-05-21T16:54:41.043Z,4.80
2018-05-21T16:57:09.800Z,5.30
2018-05-21T16:59:38.134Z,4.20
2018-05-21T17:02:06.795Z,4.30
2018-05-21T17:04:35.713Z,5.00
2018-05-21T17:07:04.272Z,4.60
2018-05-21T17:09:32.665Z,4.53
2018-05-21T17:12:01.231Z,4.47
2018-05-21T17:14:29.819Z,4.50
2018-05-21T17:16:58.316Z,4.20
2018-05-21T17:19:26.879Z,4.73
2018-05-21T17:21:55.560Z,5.00
2018-05-21T17:24:24.055Z,3.53
2018-05-21T17:26:52.628Z,4.70
2018-05-21T17:29:21.020Z,4.03
2018-05-21T17:31:49.484Z,3.77
2018-05-21T17:34:18.109Z,6.20
2018-05-21T17:36:46.684Z,5.37
2018-05-21T17:39:14.660Z,6.03
2018-05-21T17:41:42.751Z,5.83
2018-05-21T17:44:11.374Z,5.60
2018-05-21T17:46:39.415Z,5.93
2018-05-21T17:49:07.455Z,5.97
2018-05-21T17:51:35.505Z,5.47
2018-05-21T17:54:03.524Z,5.80
2018-05-21T17:56:31.488Z,6.50
2018-05-21T17:58:59.476Z,6.63
2018-05-21T18:01:27.547Z,8.47
2018-05-21T18:03:55.754Z,6.20
2018-05-21T18:06:24.353Z,7.80
2018-05-21T18:08:53.319Z,7.10
2018-05-21T18:11:22.249Z,6.67
2018-05-21T18:13:50.845Z,8.67
2018-05-21T18:16:18.803Z,7.63
2018-05-21T18:18:46.898Z,7.60
2018-05-21T18:21:15.573Z,9.70
2018-05-21T18:23:43.584Z,9.53
2018-05-21T18:26:11.841Z,10.43
2018-05-21T18:28:39.878Z,9.73
2018-05-21T18:31:07.901Z,9.27
2018-05-21T18:33:35.925Z,9.70
2018-05-21T18:36:04.058Z,9.73
2018-05-21T18:38:32.056Z,9.90
2018-05-21T18:41:00.052Z,10.43
2018-05-21T18:43:28.208Z,8.93
2018-05-21T18:45:56.381Z,10.40
2018-05-21T18:48:24.447Z,10.37
2018-05-21T18:50:52.554Z,11.60
2018-05-21T18:53:20.560Z,11.77
2018-05-21T18:55:48.683Z,12.60
2018-05-21T18:58:16.694Z,11.03
2018-05-21T19:00:45.920Z,11.50
2018-05-21T19:03:13.948Z,11.47
2018-05-21T19:05:42.050Z,12.87
2018-05-21T19:08:10.687Z,13.87
2018-05-21T19:10:38.734Z,24.40
2018-05-21T19:13:12.670Z,24.40
2018-05-21T19:15:40.721Z,13.93
2018-05-21T19:18:08.759Z,13.23
2018-05-21T19:20:36.740Z,13.87
2018-05-21T19:23:04.913Z,11.70
2018-05-21T19:25:33.058Z,12.57
2018-05-21T19:28:01.111Z,12.00
2018-05-21T19:30:29.133Z,15.10
2018-05-21T19:32:57.170Z,11.10
2018-05-21T19:35:25.310Z,11.60
2018-05-21T19:37:53.319Z,12.17
2018-05-21T19:40:22.537Z,11.80
2018-05-21T19:42:50.604Z,11.70
2018-05-21T19:45:18.588Z,10.90
2018-05-21T19:47:46.687Z,11.40
2018-05-21T19:50:14.712Z,11.50
2018-05-21T19:52:42.722Z,10.90
2018-05-21T19:55:10.730Z,10.33
2018-05-21T19:57:38.795Z,10.30
2018-05-21T20:00:06.812Z,10.97
2018-05-21T20:02:34.864Z,10.60
2018-05-21T20:05:02.941Z,11.13
2018-05-21T20:07:30.884Z,11.67
2018-05-21T20:09:59.255Z,11.70
2018-05-21T20:12:27.391Z,10.63
2018-05-21T20:14:55.363Z,10.73
2018-05-21T20:17:23.338Z,10.43
2018-05-21T20:19:51.335Z,11.00
2018-05-21T20:22:19.359Z,9.93
2018-05-21T20:24:47.415Z,10.73
2018-05-21T20:27:15.414Z,12.50
2018-05-21T20:29:43.484Z,10.33
2018-05-21T20:32:11.473Z,10.83
2018-05-21T20:34:39.508Z,12.27
2018-05-21T20:37:07.542Z,9.97
2018-05-21T20:39:35.582Z,11.43
2018-05-21T20:42:03.661Z,10.40
2018-05-21T20:44:31.641Z,10.10
2018-05-21T20:46:59.605Z,9.97
2018-05-21T20:49:27.565Z,10.57
2018-05-21T20:51:55.538Z,9.90
2018-05-21T20:54:23.535Z,10.63
2018-05-21T20:56:51.551Z,10.30
2018-05-21T20:59:19.514Z,9.80
2018-05-21T21:01:47.534Z,10.23
2018-05-21T21:04:15.496Z,8.90
2018-05-21T21:06:43.402Z,10.63
2018-05-21T21:09:11.436Z,8.73
2018-05-21T21:11:39.905Z,9.77
2018-05-21T21:14:07.923Z,9.53
2018-05-21T21:16:35.940Z,12.73
2018-05-21T21:19:04.013Z,9.20
2018-05-21T21:21:32.040Z,9.60
2018-05-21T21:24:00.026Z,10.80
2018-05-21T21:26:27.965Z,9.30
2018-05-21T21:28:55.985Z,9.50
2018-05-21T21:31:23.963Z,9.33
2018-05-21T21:33:51.961Z,9.40
2018-05-21T21:36:19.966Z,9.60
2018-05-21T21:38:47.919Z,9.27
2018-05-21T21:41:15.933Z,9.73
2018-05-21T21:43:44.004Z,9.30
2018-05-21T21:46:11.971Z,10.43
2018-05-21T21:48:40.015Z,9.60
2018-05-21T21:51:08.065Z,9.23
2018-05-21T21:53:36.101Z,9.40
2018-05-21T21:56:04.122Z,10.87
2018-05-21T21:58:32.095Z,9.77
2018-05-21T22:01:00.183Z,10.23
2018-05-21T22:03:28.186Z,9.57
2018-05-21T22:05:56.285Z,9.90
2018-05-21T22:08:24.251Z,11.10
2018-05-21T22:10:52.340Z,10.17
2018-05-21T22:13:20.617Z,10.53
2018-05-21T22:15:48.581Z,9.10
2018-05-21T22:18:16.537Z,10.00
2018-05-21T22:20:44.604Z,10.63
2018-05-21T22:23:12.598Z,9.47
2018-05-21T22:25:40.619Z,9.83
2018-05-21T22:28:08.647Z,8.53
2018-05-21T22:30:36.628Z,8.60
2018-05-21T22:33:04.687Z,8.20
2018-05-21T22:35:32.697Z,10.10
2018-05-21T22:38:00.699Z,8.80
2018-05-21T22:40:28.728Z,9.67
2018-05-21T22:42:56.791Z,9.93
2018-05-21T22:45:24.823Z,10.93
2018-05-21T22:47:52.838Z,11.13
2018-05-21T22:50:20.847Z,12.67
2018-05-21T22:52:48.893Z,13.77
2018-05-21T22:55:16.916Z,11.40
2018-05-21T22:57:44.923Z,11.83
2018-05-21T23:00:12.930Z,10.23
2018-05-21T23:02:40.944Z,12.40
2018-05-21T23:05:08.985Z,10.97
2018-05-21T23:07:37.001Z,11.90
2018-05-21T23:10:05.018Z,11.93
2018-05-21T23:12:33.015Z,11.20
2018-05-21T23:15:01.306Z,11.53
2018-05-21T23:17:29.336Z,12.67
2018-05-21T23:19:57.363Z,12.43
2018-05-21T23:22:47.845Z,12.37
2018-05-21T23:25:15.829Z,9.90
2018-05-21T23:27:44.514Z,9.70
2018-05-21T23:30:12.627Z,10.13
2018-05-21T23:32:40.638Z,10.80
2018-05-21T23:35:08.704Z,9.63
2018-05-21T23:37:36.690Z,10.33
2018-05-21T23:40:04.695Z,9.73
2018-05-21T23:42:32.581Z,9.53
2018-05-21T23:45:00.716Z,9.73
2018-05-21T23:47:28.696Z,9.83
2018-05-21T23:49:56.722Z,10.27
2018-05-21T23:52:24.699Z,10.40
2018-05-21T23:54:52.802Z,10.50
2018-05-21T23:57:20.856Z,10.80
2018-05-21T23:59:48.902Z,9.83
